sensor_id;sensor_type;location;lat;lon;timestamp;temperature;humidity
21928;DHT22;11128;51.096;17.190;2022-10-13T00:02:53;4.40;1.00
21928;DHT22;11128;51.096;17.190;2022-10-13T00:07:55;4.30;1.00
21928;DHT22;11128;51.096;17.190;2022-10-13T00:12:57;4.30;1.00
21928;DHT22;11128;51.096;17.190;2022-10-13T00:17:59;4.20;1.00
21928;DHT22;11128;51.096;17.190;2022-10-13T00:23:01;4.20;1.00
21928;DHT22;11128;51.096;17.190;2022-10-13T00:28:03;4.20;1.00
21928;DHT22;11128;51.096;17.190;2022-10-13T00:33:05;4.10;99.90
21928;DHT22;11128;51.096;17.190;2022-10-13T00:38:07;4.10;1.00
21928;DHT22;11128;51.096;17.190;2022-10-13T00:48:53;4.00;1.00
21928;DHT22;11128;51.096;17.190;2022-10-13T00:53:56;3.90;1.00
21928;DHT22;11128;51.096;17.190;2022-10-13T00:58:59;3.90;99.90
21928;DHT22;11128;51.096;17.190;2022-10-13T01:04:02;3.80;99.90
21928;DHT22;11128;51.096;17.190;2022-10-13T01:09:05;3.90;99.90
21928;DHT22;11128;51.096;17.190;2022-10-13T01:14:16;3.80;99.90
21928;DHT22;11128;51.096;17.190;2022-10-13T01:30:20;3.70;99.90
21928;DHT22;11128;51.096;17.190;2022-10-13T01:46:23;3.60;1.00
21928;DHT22;11128;51.096;17.190;2022-10-13T01:51:27;3.60;1.00
21928;DHT22;11128;51.096;17.190;2022-10-13T01:56:30;3.40;1.00
21928;DHT22;11128;51.096;17.190;2022-10-13T02:01:46;3.50;99.90
21928;DHT22;11128;51.096;17.190;2022-10-13T02:07:37;3.50;99.90
21928;DHT22;11128;51.096;17.190;2022-10-13T02:17:35;3.40;1.00
21928;DHT22;11128;51.096;17.190;2022-10-13T02:22:44;3.30;1.00
21928;DHT22;11128;51.096;17.190;2022-10-13T02:27:46;3.30;99.90
21928;DHT22;11128;51.096;17.190;2022-10-13T02:32:48;3.20;1.00
21928;DHT22;11128;51.096;17.190;2022-10-13T02:37:50;3.20;1.00
21928;DHT22;11128;51.096;17.190;2022-10-13T02:42:52;3.20;99.90
21928;DHT22;11128;51.096;17.190;2022-10-13T02:47:54;3.20;99.90
21928;DHT22;11128;51.096;17.190;2022-10-13T02:52:57;3.30;99.90
21928;DHT22;11128;51.096;17.190;2022-10-13T02:57:58;3.40;1.00
21928;DHT22;11128;51.096;17.190;2022-10-13T03:03:00;3.40;99.90
21928;DHT22;11128;51.096;17.190;2022-10-13T03:08:02;3.30;1.00
21928;DHT22;11128;51.096;17.190;2022-10-13T03:13:04;3.20;78.10
21928;DHT22;11128;51.096;17.190;2022-10-13T03:18:06;3.20;99.90
21928;DHT22;11128;51.096;17.190;2022-10-13T03:23:08;3.10;90.50
21928;DHT22;11128;51.096;17.190;2022-10-13T03:28:10;3.10;1.00
21928;DHT22;11128;51.096;17.190;2022-10-13T03:33:11;3.10;1.00
21928;DHT22;11128;51.096;17.190;2022-10-13T03:38:13;3.00;4.30
21928;DHT22;11128;51.096;17.190;2022-10-13T03:43:15;3.00;1.00
21928;DHT22;11128;51.096;17.190;2022-10-13T03:48:16;2.90;92.60
21928;DHT22;11128;51.096;17.190;2022-10-13T03:53:20;2.70;1.00
21928;DHT22;11128;51.096;17.190;2022-10-13T03:58:23;2.80;28.90
21928;DHT22;11128;51.096;17.190;2022-10-13T04:03:26;2.80;59.10
21928;DHT22;11128;51.096;17.190;2022-10-13T04:08:28;2.80;1.00
21928;DHT22;11128;51.096;17.190;2022-10-13T04:13:31;2.80;99.90
21928;DHT22;11128;51.096;17.190;2022-10-13T04:18:33;2.70;99.90
21928;DHT22;11128;51.096;17.190;2022-10-13T04:23:35;2.70;1.00
21928;DHT22;11128;51.096;17.190;2022-10-13T04:28:38;2.70;1.00
21928;DHT22;11128;51.096;17.190;2022-10-13T04:33:40;2.70;1.00
21928;DHT22;11128;51.096;17.190;2022-10-13T04:38:42;2.70;1.00
21928;DHT22;11128;51.096;17.190;2022-10-13T04:43:47;2.70;1.00
21928;DHT22;11128;51.096;17.190;2022-10-13T04:48:49;2.70;1.00
21928;DHT22;11128;51.096;17.190;2022-10-13T04:53:55;2.70;1.00
21928;DHT22;11128;51.096;17.190;2022-10-13T04:58:57;2.70;1.00
21928;DHT22;11128;51.096;17.190;2022-10-13T05:04:02;2.80;1.00
21928;DHT22;11128;51.096;17.190;2022-10-13T05:09:05;2.80;1.00
21928;DHT22;11128;51.096;17.190;2022-10-13T05:14:07;2.80;1.00
21928;DHT22;11128;51.096;17.190;2022-10-13T05:19:09;2.80;1.00
21928;DHT22;11128;51.096;17.190;2022-10-13T05:24:11;2.90;1.00
21928;DHT22;11128;51.096;17.190;2022-10-13T05:29:14;2.90;1.00
21928;DHT22;11128;51.096;17.190;2022-10-13T05:34:18;2.90;99.90
21928;DHT22;11128;51.096;17.190;2022-10-13T05:39:19;3.00;99.90
21928;DHT22;11128;51.096;17.190;2022-10-13T05:44:21;3.00;1.00
21928;DHT22;11128;51.096;17.190;2022-10-13T05:49:23;3.00;1.00
21928;DHT22;11128;51.096;17.190;2022-10-13T05:54:28;3.10;1.00
21928;DHT22;11128;51.096;17.190;2022-10-13T05:59:39;3.20;52.80
21928;DHT22;11128;51.096;17.190;2022-10-13T06:04:46;3.30;99.90
21928;DHT22;11128;51.096;17.190;2022-10-13T06:09:50;3.60;1.00
21928;DHT22;11128;51.096;17.190;2022-10-13T06:14:52;3.80;1.00
21928;DHT22;11128;51.096;17.190;2022-10-13T06:19:54;4.00;99.90
21928;DHT22;11128;51.096;17.190;2022-10-13T06:24:55;4.30;1.00
21928;DHT22;11128;51.096;17.190;2022-10-13T06:29:57;4.60;99.90
21928;DHT22;11128;51.096;17.190;2022-10-13T06:34:59;4.90;1.00
21928;DHT22;11128;51.096;17.190;2022-10-13T06:40:01;5.20;1.00
21928;DHT22;11128;51.096;17.190;2022-10-13T06:45:04;5.60;1.00
21928;DHT22;11128;51.096;17.190;2022-10-13T06:50:06;6.00;99.90
21928;DHT22;11128;51.096;17.190;2022-10-13T06:55:08;6.20;99.90
21928;DHT22;11128;51.096;17.190;2022-10-13T07:00:11;6.50;99.90
21928;DHT22;11128;51.096;17.190;2022-10-13T07:05:12;6.80;99.90
21928;DHT22;11128;51.096;17.190;2022-10-13T07:10:15;7.10;1.00
21928;DHT22;11128;51.096;17.190;2022-10-13T07:15:16;7.40;1.00
21928;DHT22;11128;51.096;17.190;2022-10-13T07:20:20;7.50;99.90
21928;DHT22;11128;51.096;17.190;2022-10-13T07:25:22;7.90;1.00
21928;DHT22;11128;51.096;17.190;2022-10-13T07:30:25;8.30;1.00
21928;DHT22;11128;51.096;17.190;2022-10-13T07:35:26;8.30;1.00
21928;DHT22;11128;51.096;17.190;2022-10-13T07:40:29;8.60;20.30
21928;DHT22;11128;51.096;17.190;2022-10-13T07:45:30;9.10;99.90
21928;DHT22;11128;51.096;17.190;2022-10-13T07:50:32;9.60;99.90
21928;DHT22;11128;51.096;17.190;2022-10-13T07:55:34;10.10;99.90
21928;DHT22;11128;51.096;17.190;2022-10-13T08:00:36;10.20;1.00
21928;DHT22;11128;51.096;17.190;2022-10-13T08:05:38;10.30;42.00
21928;DHT22;11128;51.096;17.190;2022-10-13T08:10:39;10.90;1.00
21928;DHT22;11128;51.096;17.190;2022-10-13T08:15:42;11.20;99.90
21928;DHT22;11128;51.096;17.190;2022-10-13T08:20:45;11.90;1.00
21928;DHT22;11128;51.096;17.190;2022-10-13T08:25:46;12.50;1.00
21928;DHT22;11128;51.096;17.190;2022-10-13T08:30:48;12.80;1.00
21928;DHT22;11128;51.096;17.190;2022-10-13T08:35:57;13.40;99.90
21928;DHT22;11128;51.096;17.190;2022-10-13T08:40:59;13.80;99.90
21928;DHT22;11128;51.096;17.190;2022-10-13T08:46:07;14.30;99.90
21928;DHT22;11128;51.096;17.190;2022-10-13T08:51:12;14.70;97.80
21928;DHT22;11128;51.096;17.190;2022-10-13T08:56:22;14.70;53.00
21928;DHT22;11128;51.096;17.190;2022-10-13T09:01:33;14.50;28.50
21928;DHT22;11128;51.096;17.190;2022-10-13T09:06:40;15.00;2.00
21928;DHT22;11128;51.096;17.190;2022-10-13T09:11:44;15.40;17.80
21928;DHT22;11128;51.096;17.190;2022-10-13T09:16:47;15.90;1.00
21928;DHT22;11128;51.096;17.190;2022-10-13T09:21:51;16.50;1.00
21928;DHT22;11128;51.096;17.190;2022-10-13T09:27:13;17.40;1.00
21928;DHT22;11128;51.096;17.190;2022-10-13T09:32:22;17.40;1.00
21928;DHT22;11128;51.096;17.190;2022-10-13T09:37:24;18.10;1.00
21928;DHT22;11128;51.096;17.190;2022-10-13T09:42:28;18.30;1.00
21928;DHT22;11128;51.096;17.190;2022-10-13T09:47:32;18.40;1.00
21928;DHT22;11128;51.096;17.190;2022-10-13T09:52:33;18.70;1.00
21928;DHT22;11128;51.096;17.190;2022-10-13T09:57:44;18.70;1.00
21928;DHT22;11128;51.096;17.190;2022-10-13T10:08:07;19.10;1.00
21928;DHT22;11128;51.096;17.190;2022-10-13T10:13:12;20.30;1.00
21928;DHT22;11128;51.096;17.190;2022-10-13T10:18:19;20.50;1.00
21928;DHT22;11128;51.096;17.190;2022-10-13T10:24:18;20.80;1.00
21928;DHT22;11128;51.096;17.190;2022-10-13T10:34:49;20.50;1.00
21928;DHT22;11128;51.096;17.190;2022-10-13T10:40:03;20.90;1.00
21928;DHT22;11128;51.096;17.190;2022-10-13T10:45:26;21.00;1.00
21928;DHT22;11128;51.096;17.190;2022-10-13T10:50:29;21.50;1.00
21928;DHT22;11128;51.096;17.190;2022-10-13T10:55:58;22.20;1.00
21928;DHT22;11128;51.096;17.190;2022-10-13T11:06:34;22.30;1.00
21928;DHT22;11128;51.096;17.190;2022-10-13T11:11:41;22.10;1.00
21928;DHT22;11128;51.096;17.190;2022-10-13T11:32:41;22.90;1.00
21928;DHT22;11128;51.096;17.190;2022-10-13T11:58:48;24.10;1.00
21928;DHT22;11128;51.096;17.190;2022-10-13T12:03:50;24.40;1.00
21928;DHT22;11128;51.096;17.190;2022-10-13T12:08:51;24.30;1.00
21928;DHT22;11128;51.096;17.190;2022-10-13T12:13:54;24.70;1.00
21928;DHT22;11128;51.096;17.190;2022-10-13T12:19:08;24.90;1.00
21928;DHT22;11128;51.096;17.190;2022-10-13T12:24:12;25.50;1.00
21928;DHT22;11128;51.096;17.190;2022-10-13T12:29:14;25.10;1.00
21928;DHT22;11128;51.096;17.190;2022-10-13T12:34:22;25.30;1.00
21928;DHT22;11128;51.096;17.190;2022-10-13T12:39:25;24.90;1.00
21928;DHT22;11128;51.096;17.190;2022-10-13T12:44:29;25.50;1.00
21928;DHT22;11128;51.096;17.190;2022-10-13T12:49:34;25.50;1.00
21928;DHT22;11128;51.096;17.190;2022-10-13T12:54:37;25.30;1.00
21928;DHT22;11128;51.096;17.190;2022-10-13T12:59:40;25.20;1.00
21928;DHT22;11128;51.096;17.190;2022-10-13T13:04:43;25.30;1.00
21928;DHT22;11128;51.096;17.190;2022-10-13T13:10:07;25.90;1.00
21928;DHT22;11128;51.096;17.190;2022-10-13T13:15:35;25.40;1.00
21928;DHT22;11128;51.096;17.190;2022-10-13T13:20:38;26.00;1.00
21928;DHT22;11128;51.096;17.190;2022-10-13T13:25:39;25.20;1.00
21928;DHT22;11128;51.096;17.190;2022-10-13T13:30:41;24.40;1.00
21928;DHT22;11128;51.096;17.190;2022-10-13T13:35:44;23.50;1.00
21928;DHT22;11128;51.096;17.190;2022-10-13T13:40:46;23.00;1.00
21928;DHT22;11128;51.096;17.190;2022-10-13T13:45:47;23.10;1.00
21928;DHT22;11128;51.096;17.190;2022-10-13T13:50:49;23.60;1.00
21928;DHT22;11128;51.096;17.190;2022-10-13T13:55:51;24.50;1.00
21928;DHT22;11128;51.096;17.190;2022-10-13T14:00:52;24.90;1.00
21928;DHT22;11128;51.096;17.190;2022-10-13T14:05:54;25.60;1.00
21928;DHT22;11128;51.096;17.190;2022-10-13T14:10:56;25.10;1.00
21928;DHT22;11128;51.096;17.190;2022-10-13T14:15:58;24.60;1.00
21928;DHT22;11128;51.096;17.190;2022-10-13T14:21:00;23.90;1.00
21928;DHT22;11128;51.096;17.190;2022-10-13T14:26:06;22.80;1.00
21928;DHT22;11128;51.096;17.190;2022-10-13T14:31:11;22.50;1.00
21928;DHT22;11128;51.096;17.190;2022-10-13T14:36:12;21.90;1.00
21928;DHT22;11128;51.096;17.190;2022-10-13T14:41:14;21.70;1.00
21928;DHT22;11128;51.096;17.190;2022-10-13T14:46:17;21.40;1.00
21928;DHT22;11128;51.096;17.190;2022-10-13T14:51:18;21.10;1.00
21928;DHT22;11128;51.096;17.190;2022-10-13T14:56:26;21.30;1.00
21928;DHT22;11128;51.096;17.190;2022-10-13T15:01:28;21.10;1.00
21928;DHT22;11128;51.096;17.190;2022-10-13T15:06:30;20.50;1.00
21928;DHT22;11128;51.096;17.190;2022-10-13T15:11:35;20.40;1.00
21928;DHT22;11128;51.096;17.190;2022-10-13T15:16:37;20.30;1.00
21928;DHT22;11128;51.096;17.190;2022-10-13T15:21:39;19.70;1.00
21928;DHT22;11128;51.096;17.190;2022-10-13T15:26:41;19.10;1.00
21928;DHT22;11128;51.096;17.190;2022-10-13T15:31:42;18.50;1.00
21928;DHT22;11128;51.096;17.190;2022-10-13T15:36:44;18.00;1.00
21928;DHT22;11128;51.096;17.190;2022-10-13T15:41:45;17.70;1.00
21928;DHT22;11128;51.096;17.190;2022-10-13T15:46:50;17.30;1.00
21928;DHT22;11128;51.096;17.190;2022-10-13T15:51:55;17.10;1.00
21928;DHT22;11128;51.096;17.190;2022-10-13T15:56:57;16.80;1.00
21928;DHT22;11128;51.096;17.190;2022-10-13T16:01:58;16.40;1.00
21928;DHT22;11128;51.096;17.190;2022-10-13T16:07:00;16.30;1.00
21928;DHT22;11128;51.096;17.190;2022-10-13T16:12:02;16.10;99.90
21928;DHT22;11128;51.096;17.190;2022-10-13T16:17:04;15.90;99.90
21928;DHT22;11128;51.096;17.190;2022-10-13T16:22:05;15.70;99.90
21928;DHT22;11128;51.096;17.190;2022-10-13T16:27:07;15.60;99.90
21928;DHT22;11128;51.096;17.190;2022-10-13T16:32:09;15.50;99.90
21928;DHT22;11128;51.096;17.190;2022-10-13T16:37:10;15.30;99.90
21928;DHT22;11128;51.096;17.190;2022-10-13T16:42:12;15.00;1.00
21928;DHT22;11128;51.096;17.190;2022-10-13T16:47:14;14.80;1.00
21928;DHT22;11128;51.096;17.190;2022-10-13T16:52:15;14.60;1.00
21928;DHT22;11128;51.096;17.190;2022-10-13T16:57:17;14.40;1.00
21928;DHT22;11128;51.096;17.190;2022-10-13T17:02:18;14.20;1.00
21928;DHT22;11128;51.096;17.190;2022-10-13T17:07:20;14.00;20.10
21928;DHT22;11128;51.096;17.190;2022-10-13T17:12:22;13.80;99.90
21928;DHT22;11128;51.096;17.190;2022-10-13T17:17:24;13.70;99.90
21928;DHT22;11128;51.096;17.190;2022-10-13T17:22:27;13.60;99.90
21928;DHT22;11128;51.096;17.190;2022-10-13T17:27:29;13.40;1.00
21928;DHT22;11128;51.096;17.190;2022-10-13T17:32:36;13.20;1.00
21928;DHT22;11128;51.096;17.190;2022-10-13T17:37:38;13.10;1.00
21928;DHT22;11128;51.096;17.190;2022-10-13T17:42:40;13.00;20.20
21928;DHT22;11128;51.096;17.190;2022-10-13T17:47:49;12.90;99.90
21928;DHT22;11128;51.096;17.190;2022-10-13T17:52:51;13.00;99.90
21928;DHT22;11128;51.096;17.190;2022-10-13T17:57:53;12.90;99.90
21928;DHT22;11128;51.096;17.190;2022-10-13T18:02:55;12.90;1.00
21928;DHT22;11128;51.096;17.190;2022-10-13T18:07:56;12.90;1.00
21928;DHT22;11128;51.096;17.190;2022-10-13T18:12:58;12.80;1.00
21928;DHT22;11128;51.096;17.190;2022-10-13T18:18:00;12.70;1.00
21928;DHT22;11128;51.096;17.190;2022-10-13T18:23:03;12.60;1.00
21928;DHT22;11128;51.096;17.190;2022-10-13T18:28:04;12.50;1.00
21928;DHT22;11128;51.096;17.190;2022-10-13T18:33:06;12.30;1.00
21928;DHT22;11128;51.096;17.190;2022-10-13T18:38:08;12.00;1.00
21928;DHT22;11128;51.096;17.190;2022-10-13T18:43:10;11.70;1.00
21928;DHT22;11128;51.096;17.190;2022-10-13T18:48:12;11.60;1.00
21928;DHT22;11128;51.096;17.190;2022-10-13T18:53:14;11.40;1.00
21928;DHT22;11128;51.096;17.190;2022-10-13T18:58:16;11.20;59.00
21928;DHT22;11128;51.096;17.190;2022-10-13T19:03:19;11.10;1.00
21928;DHT22;11128;51.096;17.190;2022-10-13T19:08:21;10.90;1.00
21928;DHT22;11128;51.096;17.190;2022-10-13T19:13:25;10.70;99.90
21928;DHT22;11128;51.096;17.190;2022-10-13T19:18:27;10.60;99.90
21928;DHT22;11128;51.096;17.190;2022-10-13T19:23:29;10.40;1.00
21928;DHT22;11128;51.096;17.190;2022-10-13T19:28:31;10.40;1.00
21928;DHT22;11128;51.096;17.190;2022-10-13T19:33:33;10.40;99.90
21928;DHT22;11128;51.096;17.190;2022-10-13T19:38:35;10.30;99.90
21928;DHT22;11128;51.096;17.190;2022-10-13T19:43:37;10.40;99.90
21928;DHT22;11128;51.096;17.190;2022-10-13T19:48:39;10.50;1.00
21928;DHT22;11128;51.096;17.190;2022-10-13T19:53:42;9.40;1.00
21928;DHT22;11128;51.096;17.190;2022-10-13T19:58:43;10.70;28.90
21928;DHT22;11128;51.096;17.190;2022-10-13T20:03:46;10.80;1.00
21928;DHT22;11128;51.096;17.190;2022-10-13T20:08:48;10.70;99.90
21928;DHT22;11128;51.096;17.190;2022-10-13T20:13:51;10.70;1.00
21928;DHT22;11128;51.096;17.190;2022-10-13T20:18:56;10.70;3.00
21928;DHT22;11128;51.096;17.190;2022-10-13T20:23:58;10.80;1.00
21928;DHT22;11128;51.096;17.190;2022-10-13T20:28:59;11.00;1.00
21928;DHT22;11128;51.096;17.190;2022-10-13T20:34:02;11.20;1.00
21928;DHT22;11128;51.096;17.190;2022-10-13T20:39:04;11.10;99.90
21928;DHT22;11128;51.096;17.190;2022-10-13T20:44:05;11.00;1.00
21928;DHT22;11128;51.096;17.190;2022-10-13T20:49:07;11.00;1.00
21928;DHT22;11128;51.096;17.190;2022-10-13T20:54:10;11.10;1.00
21928;DHT22;11128;51.096;17.190;2022-10-13T20:59:14;11.10;1.00
21928;DHT22;11128;51.096;17.190;2022-10-13T21:04:15;11.10;1.00
21928;DHT22;11128;51.096;17.190;2022-10-13T21:09:18;11.00;23.90
21928;DHT22;11128;51.096;17.190;2022-10-13T21:14:19;11.00;1.00
21928;DHT22;11128;51.096;17.190;2022-10-13T21:19:20;11.00;1.00
21928;DHT22;11128;51.096;17.190;2022-10-13T21:24:22;11.10;1.00
21928;DHT22;11128;51.096;17.190;2022-10-13T21:29:24;11.10;4.00
21928;DHT22;11128;51.096;17.190;2022-10-13T21:34:26;11.10;12.10
21928;DHT22;11128;51.096;17.190;2022-10-13T21:39:27;11.00;1.00
21928;DHT22;11128;51.096;17.190;2022-10-13T21:44:29;10.90;1.00
21928;DHT22;11128;51.096;17.190;2022-10-13T21:49:31;10.90;1.00
21928;DHT22;11128;51.096;17.190;2022-10-13T21:54:32;10.80;99.90
21928;DHT22;11128;51.096;17.190;2022-10-13T21:59:34;10.60;99.90
21928;DHT22;11128;51.096;17.190;2022-10-13T22:04:36;10.40;1.00
21928;DHT22;11128;51.096;17.190;2022-10-13T22:09:37;10.20;1.00
21928;DHT22;11128;51.096;17.190;2022-10-13T22:14:39;10.10;1.00
21928;DHT22;11128;51.096;17.190;2022-10-13T22:19:40;10.10;1.00
21928;DHT22;11128;51.096;17.190;2022-10-13T22:24:42;9.90;99.90
21928;DHT22;11128;51.096;17.190;2022-10-13T22:29:43;9.80;99.90
21928;DHT22;11128;51.096;17.190;2022-10-13T22:34:44;9.70;1.00
21928;DHT22;11128;51.096;17.190;2022-10-13T22:39:46;9.60;1.00
21928;DHT22;11128;51.096;17.190;2022-10-13T22:44:47;9.60;39.20
21928;DHT22;11128;51.096;17.190;2022-10-13T22:49:48;9.60;1.00
21928;DHT22;11128;51.096;17.190;2022-10-13T22:54:50;9.60;99.90
21928;DHT22;11128;51.096;17.190;2022-10-13T22:59:51;9.50;99.90
21928;DHT22;11128;51.096;17.190;2022-10-13T23:04:53;9.50;1.00
21928;DHT22;11128;51.096;17.190;2022-10-13T23:09:55;9.50;1.00
21928;DHT22;11128;51.096;17.190;2022-10-13T23:14:57;9.40;99.90
21928;DHT22;11128;51.096;17.190;2022-10-13T23:19:59;9.50;99.90
21928;DHT22;11128;51.096;17.190;2022-10-13T23:25:00;9.50;1.00
21928;DHT22;11128;51.096;17.190;2022-10-13T23:30:03;9.50;1.00
21928;DHT22;11128;51.096;17.190;2022-10-13T23:35:05;9.40;1.00
21928;DHT22;11128;51.096;17.190;2022-10-13T23:40:07;9.40;1.00
21928;DHT22;11128;51.096;17.190;2022-10-13T23:45:09;9.40;1.00
21928;DHT22;11128;51.096;17.190;2022-10-13T23:50:10;9.40;1.00
21928;DHT22;11128;51.096;17.190;2022-10-13T23:55:12;9.40;1.00
